sensor_id;sensor_type;location;lat;lon;timestamp;temperature;humidity
47805;DHT22;33568;45.286;9.900;2024-03-08T00:00:38;10.30;99.90
47805;DHT22;33568;45.286;9.900;2024-03-08T00:03:06;10.40;99.90
47805;DHT22;33568;45.286;9.900;2024-03-08T00:05:32;10.40;99.90
47805;DHT22;33568;45.286;9.900;2024-03-08T00:07:59;10.40;99.90
47805;DHT22;33568;45.286;9.900;2024-03-08T00:10:26;10.50;99.90
47805;DHT22;33568;45.286;9.900;2024-03-08T00:12:54;10.50;99.90
47805;DHT22;33568;45.286;9.900;2024-03-08T00:15:21;10.50;99.90
47805;DHT22;33568;45.286;9.900;2024-03-08T00:17:48;10.60;99.90
47805;DHT22;33568;45.286;9.900;2024-03-08T00:20:16;10.60;99.90
47805;DHT22;33568;45.286;9.900;2024-03-08T00:22:44;10.60;99.90
47805;DHT22;33568;45.286;9.900;2024-03-08T00:25:10;10.60;99.90
47805;DHT22;33568;45.286;9.900;2024-03-08T00:27:38;10.60;99.90
47805;DHT22;33568;45.286;9.900;2024-03-08T00:30:04;10.70;99.90
47805;DHT22;33568;45.286;9.900;2024-03-08T00:32:31;10.70;99.90
47805;DHT22;33568;45.286;9.900;2024-03-08T00:34:58;10.70;99.90
47805;DHT22;33568;45.286;9.900;2024-03-08T00:37:24;10.70;99.90
47805;DHT22;33568;45.286;9.900;2024-03-08T00:39:53;10.70;99.90
47805;DHT22;33568;45.286;9.900;2024-03-08T00:42:20;10.70;99.90
47805;DHT22;33568;45.286;9.900;2024-03-08T00:44:48;10.80;99.90
47805;DHT22;33568;45.286;9.900;2024-03-08T00:47:17;10.80;99.90
47805;DHT22;33568;45.286;9.900;2024-03-08T00:49:43;10.80;99.90
47805;DHT22;33568;45.286;9.900;2024-03-08T00:52:10;10.80;99.90
47805;DHT22;33568;45.286;9.900;2024-03-08T00:54:36;10.80;99.90
47805;DHT22;33568;45.286;9.900;2024-03-08T00:57:06;10.80;99.90
47805;DHT22;33568;45.286;9.900;2024-03-08T00:59:32;10.80;99.90
47805;DHT22;33568;45.286;9.900;2024-03-08T01:02:00;10.80;99.90
47805;DHT22;33568;45.286;9.900;2024-03-08T01:04:26;10.80;99.90
47805;DHT22;33568;45.286;9.900;2024-03-08T01:06:56;10.80;99.90
47805;DHT22;33568;45.286;9.900;2024-03-08T01:09:23;10.80;99.90
47805;DHT22;33568;45.286;9.900;2024-03-08T01:11:50;10.80;99.90
47805;DHT22;33568;45.286;9.900;2024-03-08T01:14:16;10.70;99.90
47805;DHT22;33568;45.286;9.900;2024-03-08T01:16:42;10.70;99.90
47805;DHT22;33568;45.286;9.900;2024-03-08T01:19:09;10.80;99.90
47805;DHT22;33568;45.286;9.900;2024-03-08T01:21:35;10.80;99.90
47805;DHT22;33568;45.286;9.900;2024-03-08T01:24:02;10.80;99.90
47805;DHT22;33568;45.286;9.900;2024-03-08T01:26:29;10.90;99.90
47805;DHT22;33568;45.286;9.900;2024-03-08T01:28:55;10.90;99.90
47805;DHT22;33568;45.286;9.900;2024-03-08T01:31:21;10.90;99.90
47805;DHT22;33568;45.286;9.900;2024-03-08T01:33:48;10.90;99.90
47805;DHT22;33568;45.286;9.900;2024-03-08T01:36:16;10.90;99.90
47805;DHT22;33568;45.286;9.900;2024-03-08T01:38:42;10.90;99.90
47805;DHT22;33568;45.286;9.900;2024-03-08T01:41:09;10.90;99.90
47805;DHT22;33568;45.286;9.900;2024-03-08T01:43:35;10.80;99.90
47805;DHT22;33568;45.286;9.900;2024-03-08T01:46:02;10.80;99.90
47805;DHT22;33568;45.286;9.900;2024-03-08T01:48:29;10.80;99.90
47805;DHT22;33568;45.286;9.900;2024-03-08T01:50:57;10.80;99.90
47805;DHT22;33568;45.286;9.900;2024-03-08T01:53:27;10.80;99.90
47805;DHT22;33568;45.286;9.900;2024-03-08T01:55:57;10.80;99.90
47805;DHT22;33568;45.286;9.900;2024-03-08T01:58:26;10.90;99.90
47805;DHT22;33568;45.286;9.900;2024-03-08T02:00:53;10.90;99.90
47805;DHT22;33568;45.286;9.900;2024-03-08T02:03:19;10.80;99.90
47805;DHT22;33568;45.286;9.900;2024-03-08T02:05:46;10.80;99.90
47805;DHT22;33568;45.286;9.900;2024-03-08T02:08:12;10.90;99.90
47805;DHT22;33568;45.286;9.900;2024-03-08T02:10:41;10.90;99.90
47805;DHT22;33568;45.286;9.900;2024-03-08T02:13:09;10.90;99.90
47805;DHT22;33568;45.286;9.900;2024-03-08T02:15:59;10.80;99.90
47805;DHT22;33568;45.286;9.900;2024-03-08T02:18:28;10.80;99.90
47805;DHT22;33568;45.286;9.900;2024-03-08T02:20:56;10.80;99.90
47805;DHT22;33568;45.286;9.900;2024-03-08T02:23:23;10.80;99.90
47805;DHT22;33568;45.286;9.900;2024-03-08T02:25:51;10.90;99.90
47805;DHT22;33568;45.286;9.900;2024-03-08T02:28:18;11.00;99.90
47805;DHT22;33568;45.286;9.900;2024-03-08T02:30:47;11.00;99.90
47805;DHT22;33568;45.286;9.900;2024-03-08T02:33:18;11.00;99.90
47805;DHT22;33568;45.286;9.900;2024-03-08T02:35:45;11.00;99.90
47805;DHT22;33568;45.286;9.900;2024-03-08T02:38:19;11.00;99.90
47805;DHT22;33568;45.286;9.900;2024-03-08T02:40:46;11.00;99.90
47805;DHT22;33568;45.286;9.900;2024-03-08T02:43:14;11.00;99.90
47805;DHT22;33568;45.286;9.900;2024-03-08T02:45:41;11.00;99.90
47805;DHT22;33568;45.286;9.900;2024-03-08T02:48:12;11.00;99.90
47805;DHT22;33568;45.286;9.900;2024-03-08T02:50:40;11.00;99.90
47805;DHT22;33568;45.286;9.900;2024-03-08T02:53:08;11.00;99.90
47805;DHT22;33568;45.286;9.900;2024-03-08T02:55:36;10.90;99.90
47805;DHT22;33568;45.286;9.900;2024-03-08T02:58:03;11.00;99.90
47805;DHT22;33568;45.286;9.900;2024-03-08T03:00:30;10.90;99.90
47805;DHT22;33568;45.286;9.900;2024-03-08T03:02:57;10.90;99.90
47805;DHT22;33568;45.286;9.900;2024-03-08T03:05:24;10.90;99.90
47805;DHT22;33568;45.286;9.900;2024-03-08T03:07:51;10.90;99.90
47805;DHT22;33568;45.286;9.900;2024-03-08T03:10:18;10.90;99.90
47805;DHT22;33568;45.286;9.900;2024-03-08T03:12:45;10.80;99.90
47805;DHT22;33568;45.286;9.900;2024-03-08T03:15:12;10.80;99.90
47805;DHT22;33568;45.286;9.900;2024-03-08T03:17:39;10.80;99.90
47805;DHT22;33568;45.286;9.900;2024-03-08T03:20:09;10.80;99.90
47805;DHT22;33568;45.286;9.900;2024-03-08T03:22:39;10.80;99.90
47805;DHT22;33568;45.286;9.900;2024-03-08T03:25:13;10.70;99.90
47805;DHT22;33568;45.286;9.900;2024-03-08T03:27:40;10.70;99.90
47805;DHT22;33568;45.286;9.900;2024-03-08T03:30:08;10.60;99.90
47805;DHT22;33568;45.286;9.900;2024-03-08T03:32:52;10.60;99.90
47805;DHT22;33568;45.286;9.900;2024-03-08T03:35:21;10.50;99.90
47805;DHT22;33568;45.286;9.900;2024-03-08T03:37:49;10.40;99.90
47805;DHT22;33568;45.286;9.900;2024-03-08T03:40:48;10.40;99.90
47805;DHT22;33568;45.286;9.900;2024-03-08T03:43:14;10.40;99.90
47805;DHT22;33568;45.286;9.900;2024-03-08T03:45:41;10.30;99.90
47805;DHT22;33568;45.286;9.900;2024-03-08T03:48:09;10.30;99.90
47805;DHT22;33568;45.286;9.900;2024-03-08T03:50:35;10.30;99.90
47805;DHT22;33568;45.286;9.900;2024-03-08T03:53:03;10.30;99.90
47805;DHT22;33568;45.286;9.900;2024-03-08T03:55:29;10.30;99.90
47805;DHT22;33568;45.286;9.900;2024-03-08T03:57:55;10.30;99.90
47805;DHT22;33568;45.286;9.900;2024-03-08T04:00:22;10.20;99.90
47805;DHT22;33568;45.286;9.900;2024-03-08T04:02:48;10.20;99.90
47805;DHT22;33568;45.286;9.900;2024-03-08T04:05:15;10.20;99.90
47805;DHT22;33568;45.286;9.900;2024-03-08T04:07:41;10.10;99.90
47805;DHT22;33568;45.286;9.900;2024-03-08T04:10:09;9.90;99.90
47805;DHT22;33568;45.286;9.900;2024-03-08T04:12:35;9.90;99.90
47805;DHT22;33568;45.286;9.900;2024-03-08T04:15:02;9.90;99.90
47805;DHT22;33568;45.286;9.900;2024-03-08T04:17:31;9.80;99.90
47805;DHT22;33568;45.286;9.900;2024-03-08T04:19:57;9.80;99.90
47805;DHT22;33568;45.286;9.900;2024-03-08T04:22:23;9.90;99.90
47805;DHT22;33568;45.286;9.900;2024-03-08T04:24:50;9.90;99.90
47805;DHT22;33568;45.286;9.900;2024-03-08T04:27:17;10.00;99.90
47805;DHT22;33568;45.286;9.900;2024-03-08T04:29:43;10.00;99.90
47805;DHT22;33568;45.286;9.900;2024-03-08T04:32:10;10.10;99.90
47805;DHT22;33568;45.286;9.900;2024-03-08T04:34:36;10.10;99.90
47805;DHT22;33568;45.286;9.900;2024-03-08T04:37:03;10.10;99.90
47805;DHT22;33568;45.286;9.900;2024-03-08T04:39:31;10.10;99.90
47805;DHT22;33568;45.286;9.900;2024-03-08T04:42:00;10.10;99.90
47805;DHT22;33568;45.286;9.900;2024-03-08T04:44:30;10.20;99.90
47805;DHT22;33568;45.286;9.900;2024-03-08T04:46:57;10.20;99.90
47805;DHT22;33568;45.286;9.900;2024-03-08T04:49:24;10.20;99.90
47805;DHT22;33568;45.286;9.900;2024-03-08T04:51:50;10.10;99.90
47805;DHT22;33568;45.286;9.900;2024-03-08T04:54:16;10.10;99.90
47805;DHT22;33568;45.286;9.900;2024-03-08T04:56:43;10.10;99.90
47805;DHT22;33568;45.286;9.900;2024-03-08T04:59:09;10.10;99.90
47805;DHT22;33568;45.286;9.900;2024-03-08T05:01:35;10.20;99.90
47805;DHT22;33568;45.286;9.900;2024-03-08T05:04:04;10.20;99.90
47805;DHT22;33568;45.286;9.900;2024-03-08T05:06:31;10.20;99.90
47805;DHT22;33568;45.286;9.900;2024-03-08T05:08:59;10.20;99.90
47805;DHT22;33568;45.286;9.900;2024-03-08T05:11:25;10.10;99.90
47805;DHT22;33568;45.286;9.900;2024-03-08T05:13:52;10.10;99.90
47805;DHT22;33568;45.286;9.900;2024-03-08T05:16:20;10.10;99.90
47805;DHT22;33568;45.286;9.900;2024-03-08T05:18:48;10.10;99.90
47805;DHT22;33568;45.286;9.900;2024-03-08T05:21:15;10.10;99.90
47805;DHT22;33568;45.286;9.900;2024-03-08T05:23:43;10.10;99.90
47805;DHT22;33568;45.286;9.900;2024-03-08T05:26:10;10.10;99.90
47805;DHT22;33568;45.286;9.900;2024-03-08T05:28:36;10.10;99.90
47805;DHT22;33568;45.286;9.900;2024-03-08T05:31:02;10.00;99.90
47805;DHT22;33568;45.286;9.900;2024-03-08T05:33:29;10.00;99.90
47805;DHT22;33568;45.286;9.900;2024-03-08T05:35:55;10.00;99.90
47805;DHT22;33568;45.286;9.900;2024-03-08T05:38:22;9.90;99.90
47805;DHT22;33568;45.286;9.900;2024-03-08T05:40:48;9.90;99.90
47805;DHT22;33568;45.286;9.900;2024-03-08T05:43:14;9.80;99.90
47805;DHT22;33568;45.286;9.900;2024-03-08T05:45:43;9.80;99.90
47805;DHT22;33568;45.286;9.900;2024-03-08T05:48:10;9.80;99.90
47805;DHT22;33568;45.286;9.900;2024-03-08T05:50:38;9.90;99.90
47805;DHT22;33568;45.286;9.900;2024-03-08T05:53:05;10.00;99.90
47805;DHT22;33568;45.286;9.900;2024-03-08T05:55:33;9.90;99.90
47805;DHT22;33568;45.286;9.900;2024-03-08T05:58:02;9.90;99.90
47805;DHT22;33568;45.286;9.900;2024-03-08T06:00:28;9.90;99.90
47805;DHT22;33568;45.286;9.900;2024-03-08T06:02:57;9.90;99.90
47805;DHT22;33568;45.286;9.900;2024-03-08T06:05:24;10.00;99.90
47805;DHT22;33568;45.286;9.900;2024-03-08T06:07:51;9.90;99.90
47805;DHT22;33568;45.286;9.900;2024-03-08T06:10:19;9.90;99.90
47805;DHT22;33568;45.286;9.900;2024-03-08T06:12:45;9.90;99.90
47805;DHT22;33568;45.286;9.900;2024-03-08T06:15:12;9.80;99.90
47805;DHT22;33568;45.286;9.900;2024-03-08T06:17:42;9.80;99.90
47805;DHT22;33568;45.286;9.900;2024-03-08T06:20:08;9.90;99.90
47805;DHT22;33568;45.286;9.900;2024-03-08T06:22:42;9.90;99.90
47805;DHT22;33568;45.286;9.900;2024-03-08T06:25:09;9.90;99.90
47805;DHT22;33568;45.286;9.900;2024-03-08T06:27:37;9.80;99.90
47805;DHT22;33568;45.286;9.900;2024-03-08T06:30:03;9.90;99.90
47805;DHT22;33568;45.286;9.900;2024-03-08T06:32:31;9.90;99.90
47805;DHT22;33568;45.286;9.900;2024-03-08T06:35:02;9.80;99.90
47805;DHT22;33568;45.286;9.900;2024-03-08T06:37:33;9.80;99.90
47805;DHT22;33568;45.286;9.900;2024-03-08T06:40:00;9.80;99.90
47805;DHT22;33568;45.286;9.900;2024-03-08T06:42:27;9.90;99.90
47805;DHT22;33568;45.286;9.900;2024-03-08T06:45:03;9.90;99.90
47805;DHT22;33568;45.286;9.900;2024-03-08T06:47:31;10.00;99.90
47805;DHT22;33568;45.286;9.900;2024-03-08T06:49:58;10.00;99.90
47805;DHT22;33568;45.286;9.900;2024-03-08T06:52:24;10.00;99.90
47805;DHT22;33568;45.286;9.900;2024-03-08T06:54:51;10.00;99.90
47805;DHT22;33568;45.286;9.900;2024-03-08T06:57:18;10.00;99.90
47805;DHT22;33568;45.286;9.900;2024-03-08T06:59:48;10.10;99.90
47805;DHT22;33568;45.286;9.900;2024-03-08T07:02:15;10.20;99.90
47805;DHT22;33568;45.286;9.900;2024-03-08T07:04:41;10.10;99.90
47805;DHT22;33568;45.286;9.900;2024-03-08T07:07:08;10.20;99.90
47805;DHT22;33568;45.286;9.900;2024-03-08T07:09:38;10.30;99.90
47805;DHT22;33568;45.286;9.900;2024-03-08T07:12:05;10.30;99.90
47805;DHT22;33568;45.286;9.900;2024-03-08T07:14:32;10.30;99.90
47805;DHT22;33568;45.286;9.900;2024-03-08T07:16:58;10.30;99.90
47805;DHT22;33568;45.286;9.900;2024-03-08T07:19:25;10.30;99.90
47805;DHT22;33568;45.286;9.900;2024-03-08T07:21:51;10.30;99.90
47805;DHT22;33568;45.286;9.900;2024-03-08T07:24:18;10.40;99.90
47805;DHT22;33568;45.286;9.900;2024-03-08T07:26:59;10.40;99.90
47805;DHT22;33568;45.286;9.900;2024-03-08T07:29:25;10.40;99.90
47805;DHT22;33568;45.286;9.900;2024-03-08T07:31:51;10.40;99.90
47805;DHT22;33568;45.286;9.900;2024-03-08T07:34:28;10.40;99.90
47805;DHT22;33568;45.286;9.900;2024-03-08T07:36:58;10.40;99.90
47805;DHT22;33568;45.286;9.900;2024-03-08T07:39:25;10.40;99.90
47805;DHT22;33568;45.286;9.900;2024-03-08T07:41:52;10.30;99.90
47805;DHT22;33568;45.286;9.900;2024-03-08T07:44:19;10.30;99.90
47805;DHT22;33568;45.286;9.900;2024-03-08T07:46:45;10.30;99.90
47805;DHT22;33568;45.286;9.900;2024-03-08T07:49:12;10.30;99.90
47805;DHT22;33568;45.286;9.900;2024-03-08T07:51:38;10.30;99.90
47805;DHT22;33568;45.286;9.900;2024-03-08T07:54:04;10.30;99.90
47805;DHT22;33568;45.286;9.900;2024-03-08T07:56:31;10.30;99.90
47805;DHT22;33568;45.286;9.900;2024-03-08T07:58:57;10.30;99.90
47805;DHT22;33568;45.286;9.900;2024-03-08T08:01:24;10.30;99.90
47805;DHT22;33568;45.286;9.900;2024-03-08T08:03:50;10.30;99.90
47805;DHT22;33568;45.286;9.900;2024-03-08T08:06:16;10.30;99.90
47805;DHT22;33568;45.286;9.900;2024-03-08T08:08:43;10.40;99.90
47805;DHT22;33568;45.286;9.900;2024-03-08T08:11:10;10.40;99.90
47805;DHT22;33568;45.286;9.900;2024-03-08T08:13:37;10.40;99.90
47805;DHT22;33568;45.286;9.900;2024-03-08T08:16:03;10.40;99.90
47805;DHT22;33568;45.286;9.900;2024-03-08T08:18:32;10.40;99.90
47805;DHT22;33568;45.286;9.900;2024-03-08T08:20:59;10.40;99.90
47805;DHT22;33568;45.286;9.900;2024-03-08T08:23:28;10.40;99.90
47805;DHT22;33568;45.286;9.900;2024-03-08T08:25:56;10.40;99.90
47805;DHT22;33568;45.286;9.900;2024-03-08T08:28:22;10.40;99.90
47805;DHT22;33568;45.286;9.900;2024-03-08T08:30:49;10.50;99.90
47805;DHT22;33568;45.286;9.900;2024-03-08T08:33:15;10.60;99.90
47805;DHT22;33568;45.286;9.900;2024-03-08T08:35:42;10.50;99.90
47805;DHT22;33568;45.286;9.900;2024-03-08T08:38:08;10.50;99.90
47805;DHT22;33568;45.286;9.900;2024-03-08T08:40:35;10.50;99.90
47805;DHT22;33568;45.286;9.900;2024-03-08T08:43:03;10.50;99.90
47805;DHT22;33568;45.286;9.900;2024-03-08T08:45:33;10.50;99.90
47805;DHT22;33568;45.286;9.900;2024-03-08T08:47:59;10.50;99.90
47805;DHT22;33568;45.286;9.900;2024-03-08T08:50:26;10.50;99.90
47805;DHT22;33568;45.286;9.900;2024-03-08T08:52:55;10.50;99.90
47805;DHT22;33568;45.286;9.900;2024-03-08T08:55:22;10.70;99.90
47805;DHT22;33568;45.286;9.900;2024-03-08T08:57:52;10.70;99.90
47805;DHT22;33568;45.286;9.900;2024-03-08T09:00:21;10.70;99.90
47805;DHT22;33568;45.286;9.900;2024-03-08T09:02:50;10.80;99.90
47805;DHT22;33568;45.286;9.900;2024-03-08T09:05:17;10.80;99.90
47805;DHT22;33568;45.286;9.900;2024-03-08T09:07:44;10.80;99.90
47805;DHT22;33568;45.286;9.900;2024-03-08T09:10:11;10.90;99.90
47805;DHT22;33568;45.286;9.900;2024-03-08T09:12:38;10.90;99.90
47805;DHT22;33568;45.286;9.900;2024-03-08T09:15:06;10.90;99.90
47805;DHT22;33568;45.286;9.900;2024-03-08T09:17:37;11.00;99.90
47805;DHT22;33568;45.286;9.900;2024-03-08T09:20:07;11.00;99.90
47805;DHT22;33568;45.286;9.900;2024-03-08T09:22:35;11.10;99.90
47805;DHT22;33568;45.286;9.900;2024-03-08T09:25:01;11.10;99.90
47805;DHT22;33568;45.286;9.900;2024-03-08T09:27:29;11.10;99.90
47805;DHT22;33568;45.286;9.900;2024-03-08T09:29:56;11.10;99.90
47805;DHT22;33568;45.286;9.900;2024-03-08T09:32:23;11.10;99.90
47805;DHT22;33568;45.286;9.900;2024-03-08T09:34:49;11.10;99.90
47805;DHT22;33568;45.286;9.900;2024-03-08T09:37:17;11.10;99.90
47805;DHT22;33568;45.286;9.900;2024-03-08T09:39:44;11.10;99.90
47805;DHT22;33568;45.286;9.900;2024-03-08T09:42:11;11.20;99.90
47805;DHT22;33568;45.286;9.900;2024-03-08T09:44:47;11.10;99.90
47805;DHT22;33568;45.286;9.900;2024-03-08T09:47:14;11.10;99.90
47805;DHT22;33568;45.286;9.900;2024-03-08T09:49:43;11.00;99.90
47805;DHT22;33568;45.286;9.900;2024-03-08T09:52:10;11.00;99.90
47805;DHT22;33568;45.286;9.900;2024-03-08T09:54:38;11.00;99.90
47805;DHT22;33568;45.286;9.900;2024-03-08T09:57:08;11.00;99.90
47805;DHT22;33568;45.286;9.900;2024-03-08T09:59:38;11.00;99.90
47805;DHT22;33568;45.286;9.900;2024-03-08T10:02:04;11.10;99.90
47805;DHT22;33568;45.286;9.900;2024-03-08T10:04:33;11.10;99.90
47805;DHT22;33568;45.286;9.900;2024-03-08T10:07:02;11.10;99.90
47805;DHT22;33568;45.286;9.900;2024-03-08T10:09:31;11.10;99.90
47805;DHT22;33568;45.286;9.900;2024-03-08T10:11:57;11.00;99.90
47805;DHT22;33568;45.286;9.900;2024-03-08T10:14:28;11.00;99.90
47805;DHT22;33568;45.286;9.900;2024-03-08T10:16:55;11.10;99.90
47805;DHT22;33568;45.286;9.900;2024-03-08T10:19:26;11.20;99.90
47805;DHT22;33568;45.286;9.900;2024-03-08T10:21:57;11.40;99.90
47805;DHT22;33568;45.286;9.900;2024-03-08T10:24:32;11.50;99.90
47805;DHT22;33568;45.286;9.900;2024-03-08T10:27:02;11.60;99.90
47805;DHT22;33568;45.286;9.900;2024-03-08T10:29:33;11.80;99.90
47805;DHT22;33568;45.286;9.900;2024-03-08T10:32:01;11.90;99.90
47805;DHT22;33568;45.286;9.900;2024-03-08T10:34:37;12.10;99.90
47805;DHT22;33568;45.286;9.900;2024-03-08T10:37:04;12.20;99.90
47805;DHT22;33568;45.286;9.900;2024-03-08T10:39:36;12.30;99.90
47805;DHT22;33568;45.286;9.900;2024-03-08T10:42:04;12.50;99.90
47805;DHT22;33568;45.286;9.900;2024-03-08T10:44:43;12.70;99.90
47805;DHT22;33568;45.286;9.900;2024-03-08T10:47:25;12.80;99.90
47805;DHT22;33568;45.286;9.900;2024-03-08T10:52:40;13.00;99.90
47805;DHT22;33568;45.286;9.900;2024-03-08T10:55:07;13.00;99.90
47805;DHT22;33568;45.286;9.900;2024-03-08T10:57:38;13.00;99.90
47805;DHT22;33568;45.286;9.900;2024-03-08T11:00:07;13.00;99.90
47805;DHT22;33568;45.286;9.900;2024-03-08T11:02:43;13.10;99.90
47805;DHT22;33568;45.286;9.900;2024-03-08T11:08:19;13.10;99.30
47805;DHT22;33568;45.286;9.900;2024-03-08T11:10:47;13.00;99.90
47805;DHT22;33568;45.286;9.900;2024-03-08T11:13:41;13.10;99.90
47805;DHT22;33568;45.286;9.900;2024-03-08T11:16:10;13.20;99.80
47805;DHT22;33568;45.286;9.900;2024-03-08T11:18:37;13.30;99.90
47805;DHT22;33568;45.286;9.900;2024-03-08T11:21:13;13.30;99.90
47805;DHT22;33568;45.286;9.900;2024-03-08T11:23:45;13.40;99.80
47805;DHT22;33568;45.286;9.900;2024-03-08T11:26:25;13.40;99.70
47805;DHT22;33568;45.286;9.900;2024-03-08T11:28:51;13.20;99.70
47805;DHT22;33568;45.286;9.900;2024-03-08T11:31:24;13.10;99.70
47805;DHT22;33568;45.286;9.900;2024-03-08T11:33:53;13.20;99.80
47805;DHT22;33568;45.286;9.900;2024-03-08T11:36:29;13.10;99.70
47805;DHT22;33568;45.286;9.900;2024-03-08T11:38:58;13.10;99.70
47805;DHT22;33568;45.286;9.900;2024-03-08T11:41:25;13.00;99.70
47805;DHT22;33568;45.286;9.900;2024-03-08T11:44:05;12.90;99.80
47805;DHT22;33568;45.286;9.900;2024-03-08T11:46:34;12.70;99.80
47805;DHT22;33568;45.286;9.900;2024-03-08T11:49:01;12.60;99.90
47805;DHT22;33568;45.286;9.900;2024-03-08T11:51:29;12.50;99.80
47805;DHT22;33568;45.286;9.900;2024-03-08T11:53:59;12.40;99.90
47805;DHT22;33568;45.286;9.900;2024-03-08T11:56:25;12.40;99.90
47805;DHT22;33568;45.286;9.900;2024-03-08T11:58:54;12.30;99.90
47805;DHT22;33568;45.286;9.900;2024-03-08T12:01:23;12.30;99.90
47805;DHT22;33568;45.286;9.900;2024-03-08T12:03:53;12.30;99.90
47805;DHT22;33568;45.286;9.900;2024-03-08T12:06:20;12.30;99.90
47805;DHT22;33568;45.286;9.900;2024-03-08T12:08:49;12.20;99.90
47805;DHT22;33568;45.286;9.900;2024-03-08T12:11:22;12.20;99.90
47805;DHT22;33568;45.286;9.900;2024-03-08T12:13:55;12.20;99.90
47805;DHT22;33568;45.286;9.900;2024-03-08T12:16:32;12.20;99.90
47805;DHT22;33568;45.286;9.900;2024-03-08T12:18:59;12.10;99.90
47805;DHT22;33568;45.286;9.900;2024-03-08T12:21:26;12.10;99.90
47805;DHT22;33568;45.286;9.900;2024-03-08T12:24:02;12.20;99.90
47805;DHT22;33568;45.286;9.900;2024-03-08T12:26:29;12.20;99.90
47805;DHT22;33568;45.286;9.900;2024-03-08T12:31:44;12.00;99.90
47805;DHT22;33568;45.286;9.900;2024-03-08T12:34:13;12.00;99.90
47805;DHT22;33568;45.286;9.900;2024-03-08T12:36:44;12.00;99.90
47805;DHT22;33568;45.286;9.900;2024-03-08T12:39:10;12.00;99.90
47805;DHT22;33568;45.286;9.900;2024-03-08T12:41:41;11.90;99.90
47805;DHT22;33568;45.286;9.900;2024-03-08T12:44:10;11.90;99.90
47805;DHT22;33568;45.286;9.900;2024-03-08T12:46:40;12.00;99.90
47805;DHT22;33568;45.286;9.900;2024-03-08T12:49:09;12.10;99.90
47805;DHT22;33568;45.286;9.900;2024-03-08T12:51:36;12.20;99.90
47805;DHT22;33568;45.286;9.900;2024-03-08T12:54:02;12.20;99.90
47805;DHT22;33568;45.286;9.900;2024-03-08T12:56:30;12.30;99.90
47805;DHT22;33568;45.286;9.900;2024-03-08T12:58:56;12.40;99.90
47805;DHT22;33568;45.286;9.900;2024-03-08T13:01:22;12.40;99.90
47805;DHT22;33568;45.286;9.900;2024-03-08T13:03:49;12.50;99.90
47805;DHT22;33568;45.286;9.900;2024-03-08T13:06:19;12.50;99.90
47805;DHT22;33568;45.286;9.900;2024-03-08T13:08:47;12.50;99.90
47805;DHT22;33568;45.286;9.900;2024-03-08T13:11:14;12.40;99.90
47805;DHT22;33568;45.286;9.900;2024-03-08T13:13:41;12.40;99.90
47805;DHT22;33568;45.286;9.900;2024-03-08T13:16:07;12.30;99.90
47805;DHT22;33568;45.286;9.900;2024-03-08T13:18:35;12.30;99.90
47805;DHT22;33568;45.286;9.900;2024-03-08T13:21:01;12.30;99.90
47805;DHT22;33568;45.286;9.900;2024-03-08T13:23:36;12.30;99.90
47805;DHT22;33568;45.286;9.900;2024-03-08T13:26:12;12.30;99.90
47805;DHT22;33568;45.286;9.900;2024-03-08T13:28:41;12.40;99.90
47805;DHT22;33568;45.286;9.900;2024-03-08T13:31:08;12.50;99.90
47805;DHT22;33568;45.286;9.900;2024-03-08T13:33:36;12.50;99.70
47805;DHT22;33568;45.286;9.900;2024-03-08T13:36:03;12.50;99.50
47805;DHT22;33568;45.286;9.900;2024-03-08T13:38:30;12.50;99.60
47805;DHT22;33568;45.286;9.900;2024-03-08T13:40:58;12.50;99.80
47805;DHT22;33568;45.286;9.900;2024-03-08T13:43:25;12.50;99.50
47805;DHT22;33568;45.286;9.900;2024-03-08T13:45:51;12.50;99.20
47805;DHT22;33568;45.286;9.900;2024-03-08T13:48:21;12.50;99.30
47805;DHT22;33568;45.286;9.900;2024-03-08T13:50:51;12.60;99.70
47805;DHT22;33568;45.286;9.900;2024-03-08T13:53:17;12.60;99.30
47805;DHT22;33568;45.286;9.900;2024-03-08T13:55:44;12.70;99.70
47805;DHT22;33568;45.286;9.900;2024-03-08T13:58:11;12.70;98.70
47805;DHT22;33568;45.286;9.900;2024-03-08T14:00:40;12.70;98.80
47805;DHT22;33568;45.286;9.900;2024-03-08T14:03:10;12.80;99.20
47805;DHT22;33568;45.286;9.900;2024-03-08T14:05:39;12.70;99.10
47805;DHT22;33568;45.286;9.900;2024-03-08T14:08:06;12.80;99.10
47805;DHT22;33568;45.286;9.900;2024-03-08T14:10:34;12.70;98.80
47805;DHT22;33568;45.286;9.900;2024-03-08T14:13:00;12.60;99.00
47805;DHT22;33568;45.286;9.900;2024-03-08T14:15:31;12.60;99.00
47805;DHT22;33568;45.286;9.900;2024-03-08T14:17:57;12.50;99.30
47805;DHT22;33568;45.286;9.900;2024-03-08T14:20:24;12.50;99.40
47805;DHT22;33568;45.286;9.900;2024-03-08T14:22:53;12.50;99.40
47805;DHT22;33568;45.286;9.900;2024-03-08T14:25:21;12.40;99.30
47805;DHT22;33568;45.286;9.900;2024-03-08T14:27:53;12.30;99.40
47805;DHT22;33568;45.286;9.900;2024-03-08T14:30:20;12.20;99.30
47805;DHT22;33568;45.286;9.900;2024-03-08T14:33:07;12.20;99.30
47805;DHT22;33568;45.286;9.900;2024-03-08T14:35:35;12.10;99.30
47805;DHT22;33568;45.286;9.900;2024-03-08T14:38:02;12.00;99.40
47805;DHT22;33568;45.286;9.900;2024-03-08T14:40:28;12.00;99.50
47805;DHT22;33568;45.286;9.900;2024-03-08T14:42:56;11.90;99.90
47805;DHT22;33568;45.286;9.900;2024-03-08T14:45:23;11.90;99.80
47805;DHT22;33568;45.286;9.900;2024-03-08T14:47:50;11.80;99.90
47805;DHT22;33568;45.286;9.900;2024-03-08T14:50:20;11.90;99.90
47805;DHT22;33568;45.286;9.900;2024-03-08T14:52:47;11.90;99.90
47805;DHT22;33568;45.286;9.900;2024-03-08T14:55:14;11.80;99.90
47805;DHT22;33568;45.286;9.900;2024-03-08T14:57:41;11.80;99.90
47805;DHT22;33568;45.286;9.900;2024-03-08T15:00:08;11.70;99.90
47805;DHT22;33568;45.286;9.900;2024-03-08T15:02:44;11.70;99.90
47805;DHT22;33568;45.286;9.900;2024-03-08T15:05:11;11.70;99.90
47805;DHT22;33568;45.286;9.900;2024-03-08T15:07:37;11.80;99.90
47805;DHT22;33568;45.286;9.900;2024-03-08T15:10:06;11.80;99.90
47805;DHT22;33568;45.286;9.900;2024-03-08T15:12:37;11.70;99.90
47805;DHT22;33568;45.286;9.900;2024-03-08T15:15:08;11.70;99.90
47805;DHT22;33568;45.286;9.900;2024-03-08T15:17:36;11.70;99.90
47805;DHT22;33568;45.286;9.900;2024-03-08T15:20:06;11.60;99.90
47805;DHT22;33568;45.286;9.900;2024-03-08T15:22:46;11.60;99.90
47805;DHT22;33568;45.286;9.900;2024-03-08T15:25:12;11.60;99.90
47805;DHT22;33568;45.286;9.900;2024-03-08T15:27:46;11.60;99.80
47805;DHT22;33568;45.286;9.900;2024-03-08T15:30:13;11.50;99.90
47805;DHT22;33568;45.286;9.900;2024-03-08T15:32:40;11.50;99.90
47805;DHT22;33568;45.286;9.900;2024-03-08T15:35:10;11.50;99.90
47805;DHT22;33568;45.286;9.900;2024-03-08T15:37:40;11.40;99.80
47805;DHT22;33568;45.286;9.900;2024-03-08T15:40:11;11.40;99.50
47805;DHT22;33568;45.286;9.900;2024-03-08T15:42:48;11.40;99.80
47805;DHT22;33568;45.286;9.900;2024-03-08T15:45:15;11.40;99.80
47805;DHT22;33568;45.286;9.900;2024-03-08T15:47:42;11.30;99.90